createdAt,value
2023-03-18T00:00:10.342Z,94616.81
2023-03-18T00:02:38.839Z,94624.22
2023-03-18T00:05:07.636Z,94612.63
2023-03-18T00:07:36.304Z,94615.78
2023-03-18T00:10:05.500Z,94626.75
2023-03-18T00:12:33.196Z,94629.44
2023-03-18T00:15:00.916Z,94627.00
2023-03-18T00:17:28.087Z,94632.81
2023-03-18T00:19:55.270Z,94631.72
2023-03-18T00:22:22.770Z,94633.94
2023-03-18T00:24:49.417Z,94630.00
2023-03-18T00:27:16.489Z,94640.41
2023-03-18T00:29:43.836Z,94638.94
2023-03-18T00:32:11.239Z,94640.09
2023-03-18T00:34:37.810Z,94649.38
2023-03-18T00:37:05.049Z,94653.78
2023-03-18T00:39:33.224Z,94649.38
2023-03-18T00:42:01.969Z,94651.81
2023-03-18T00:44:29.064Z,94649.94
2023-03-18T00:46:55.870Z,94656.22
2023-03-18T00:49:22.595Z,94661.78
2023-03-18T00:51:49.282Z,94661.75
2023-03-18T00:54:18.745Z,94664.03
2023-03-18T00:56:45.494Z,94661.97
2023-03-18T00:59:12.140Z,94660.84
2023-03-18T01:01:39.840Z,94663.47
2023-03-18T01:04:07.054Z,94654.19
2023-03-18T01:06:36.154Z,94655.63
2023-03-18T01:09:06.744Z,94660.47
2023-03-18T01:11:33.438Z,94656.06
2023-03-18T01:14:00.734Z,94651.31
2023-03-18T01:16:28.174Z,94650.88
2023-03-18T01:18:55.462Z,94652.28
2023-03-18T01:21:22.669Z,94650.91
2023-03-18T01:23:54.414Z,94651.09
2023-03-18T01:26:22.110Z,94645.09
2023-03-18T01:28:48.988Z,94649.13
2023-03-18T01:31:15.873Z,94643.91
2023-03-18T01:33:45.221Z,94647.28
2023-03-18T01:36:12.460Z,94651.81
2023-03-18T01:38:40.755Z,94644.94
2023-03-18T01:41:11.486Z,94650.41
2023-03-18T01:43:41.322Z,94652.69
2023-03-18T01:46:31.478Z,94647.47
2023-03-18T01:49:00.371Z,94647.16
2023-03-18T01:51:27.565Z,94649.22
2023-03-18T01:53:57.702Z,94650.38
2023-03-18T01:56:24.937Z,94652.69
2023-03-18T01:58:55.480Z,94659.88
2023-03-18T02:01:28.748Z,94655.34
2023-03-18T02:03:56.985Z,94658.59
2023-03-18T02:06:24.432Z,94652.69
2023-03-18T02:09:00.396Z,94661.72
2023-03-18T02:11:33.365Z,94662.88
2023-03-18T02:14:01.460Z,94662.97
2023-03-18T02:16:40.416Z,94660.19
2023-03-18T02:19:16.132Z,94668.72
2023-03-18T02:22:05.091Z,94672.78
2023-03-18T02:24:49.654Z,94666.13
2023-03-18T02:27:25.668Z,94671.91
2023-03-18T02:30:02.921Z,94673.41
2023-03-18T02:32:34.411Z,94673.06
2023-03-18T02:35:06.015Z,94676.22
2023-03-18T02:37:34.321Z,94681.19
2023-03-18T02:40:14.337Z,94679.34
2023-03-18T02:42:41.524Z,94680.59
2023-03-18T02:45:26.512Z,94680.72
2023-03-18T02:48:17.877Z,94681.53
2023-03-18T02:50:45.599Z,94685.00
2023-03-18T02:53:13.558Z,94689.78
2023-03-18T02:55:41.474Z,94687.47
2023-03-18T02:58:09.232Z,94681.81
2023-03-18T03:00:36.955Z,94685.66
2023-03-18T03:03:04.149Z,94684.13
2023-03-18T03:05:33.815Z,94694.56
2023-03-18T03:08:01.008Z,94694.69
2023-03-18T03:10:30.321Z,94696.19
2023-03-18T03:12:57.617Z,94700.50
2023-03-18T03:15:27.099Z,94697.94
2023-03-18T03:17:57.726Z,94694.31
2023-03-18T03:20:25.132Z,94705.91
2023-03-18T03:22:51.752Z,94705.44
2023-03-18T03:25:19.382Z,94710.63
2023-03-18T03:27:46.111Z,94708.91
2023-03-18T03:30:13.698Z,94712.97
2023-03-18T03:32:42.125Z,94711.00
2023-03-18T03:35:13.163Z,94710.88
2023-03-18T03:37:40.522Z,94717.81
2023-03-18T03:40:08.204Z,94716.22
2023-03-18T03:42:34.887Z,94720.38
2023-03-18T03:45:03.794Z,94730.59
2023-03-18T03:47:30.740Z,94721.91
2023-03-18T03:49:57.646Z,94724.09
2023-03-18T03:52:25.123Z,94727.69
2023-03-18T03:54:53.421Z,94727.00
2023-03-18T03:57:20.166Z,94724.72
2023-03-18T03:59:47.707Z,94726.19
2023-03-18T04:02:21.608Z,94722.25
2023-03-18T04:04:48.576Z,94726.63
2023-03-18T04:07:24.507Z,94732.78
2023-03-18T04:09:51.630Z,94729.59
2023-03-18T04:12:19.750Z,94740.38
2023-03-18T04:14:53.292Z,94728.31
2023-03-18T04:17:21.210Z,94736.91
2023-03-18T04:19:48.378Z,94734.09
2023-03-18T04:22:16.506Z,94736.63
2023-03-18T04:24:44.988Z,94729.28
2023-03-18T04:27:12.713Z,94735.06
2023-03-18T04:29:39.822Z,94738.75
2023-03-18T04:32:06.716Z,94737.34
2023-03-18T04:34:34.878Z,94737.59
2023-03-18T04:37:02.271Z,94734.22
2023-03-18T04:39:30.283Z,94736.25
2023-03-18T04:41:57.294Z,94734.72
2023-03-18T04:44:24.868Z,94738.78
2023-03-18T04:46:54.051Z,94733.53
2023-03-18T04:49:22.473Z,94733.94
2023-03-18T04:51:49.282Z,94732.22
2023-03-18T04:54:23.293Z,94733.53
2023-03-18T04:56:53.164Z,94736.66
2023-03-18T04:59:21.417Z,94736.78
2023-03-18T05:01:49.034Z,94735.38
2023-03-18T05:04:16.938Z,94741.22
2023-03-18T05:06:48.048Z,94735.41
2023-03-18T05:09:15.466Z,94747.50
2023-03-18T05:11:43.780Z,94740.41
2023-03-18T05:14:33.027Z,94737.97
2023-03-18T05:17:00.747Z,94739.25
2023-03-18T05:19:28.641Z,94750.59
2023-03-18T05:22:02.268Z,94743.94
2023-03-18T05:24:29.709Z,94741.25
2023-03-18T05:26:57.469Z,94739.06
2023-03-18T05:29:30.856Z,94750.94
2023-03-18T05:32:27.164Z,94745.03
2023-03-18T05:35:00.924Z,94750.84
2023-03-18T05:37:28.604Z,94739.66
2023-03-18T05:40:01.695Z,94740.59
2023-03-18T05:42:28.792Z,94745.13
2023-03-18T05:44:56.973Z,94752.94
2023-03-18T05:47:25.100Z,94752.75
2023-03-18T05:50:04.646Z,94750.53
2023-03-18T05:52:33.494Z,94759.84
2023-03-18T05:55:04.090Z,94761.69
2023-03-18T05:57:34.552Z,94750.19
2023-03-18T06:00:05.422Z,94759.44
2023-03-18T06:02:46.480Z,94757.22
2023-03-18T06:05:14.305Z,94761.53
2023-03-18T06:07:41.530Z,94759.31
2023-03-18T06:10:09.020Z,94754.81
2023-03-18T06:12:35.944Z,94755.91
2023-03-18T06:15:03.736Z,94757.75
2023-03-18T06:17:30.482Z,94751.63
2023-03-18T06:19:57.234Z,94750.69
2023-03-18T06:22:23.890Z,94761.53
2023-03-18T06:24:50.638Z,94754.56
2023-03-18T06:27:19.454Z,94756.28
2023-03-18T06:29:53.008Z,94759.44
2023-03-18T06:32:21.980Z,94764.84
2023-03-18T06:34:48.809Z,94763.78
2023-03-18T06:37:16.532Z,94766.22
2023-03-18T06:39:44.776Z,94768.59
2023-03-18T06:42:13.087Z,94770.09
2023-03-18T06:45:00.172Z,94769.69
2023-03-18T06:47:40.112Z,94763.47
2023-03-18T06:50:07.128Z,94766.41
2023-03-18T06:52:37.367Z,94773.28
2023-03-18T06:55:11.614Z,94761.94
2023-03-18T06:57:41.504Z,94775.53
2023-03-18T07:00:10.274Z,94769.06
2023-03-18T07:02:39.545Z,94765.63
2023-03-18T07:05:08.821Z,94769.97
2023-03-18T07:07:37.740Z,94761.50
2023-03-18T07:10:07.766Z,94761.69
2023-03-18T07:12:34.524Z,94757.09
2023-03-18T07:15:01.290Z,94758.47
2023-03-18T07:17:28.036Z,94764.13
2023-03-18T07:19:56.836Z,94765.47
2023-03-18T07:22:23.366Z,94768.31
2023-03-18T07:24:51.510Z,94767.19
2023-03-18T07:27:18.273Z,94765.97
2023-03-18T07:29:44.791Z,94770.81
2023-03-18T07:32:11.521Z,94769.47
2023-03-18T07:34:38.150Z,94774.03
2023-03-18T07:37:04.869Z,94776.19
2023-03-18T07:39:32.004Z,94781.69
2023-03-18T07:41:58.563Z,94779.00
2023-03-18T07:44:29.391Z,94779.41
2023-03-18T07:46:56.535Z,94779.38
2023-03-18T07:49:23.832Z,94784.94
2023-03-18T07:51:50.728Z,94779.31
2023-03-18T07:54:18.068Z,94780.34
2023-03-18T07:56:44.734Z,94787.75
2023-03-18T07:59:12.488Z,94792.34
2023-03-18T08:01:39.848Z,94788.81
2023-03-18T08:04:06.475Z,94786.56
2023-03-18T08:06:34.387Z,94785.22
2023-03-18T08:09:02.309Z,94784.81
2023-03-18T08:11:29.031Z,94780.22
2023-03-18T08:13:56.132Z,94782.81
2023-03-18T08:16:23.219Z,94782.59
2023-03-18T08:18:49.796Z,94784.50
2023-03-18T08:21:16.358Z,94790.72
2023-03-18T08:23:43.196Z,94791.66
2023-03-18T08:26:09.838Z,94788.50
2023-03-18T08:28:36.595Z,94783.81
2023-03-18T08:31:04.954Z,94785.47
2023-03-18T08:33:32.188Z,94794.22
2023-03-18T08:35:59.382Z,94790.66
2023-03-18T08:38:26.397Z,94792.00
2023-03-18T08:40:53.000Z,94785.56
2023-03-18T08:43:22.180Z,94793.63
2023-03-18T08:45:53.933Z,94787.31
2023-03-18T08:48:21.789Z,94789.09
2023-03-18T08:50:49.581Z,94785.53
2023-03-18T08:53:17.115Z,94780.66
2023-03-18T08:55:44.652Z,94788.53
2023-03-18T08:58:11.381Z,94781.97
2023-03-18T09:00:39.815Z,94780.00
2023-03-18T09:03:06.638Z,94784.34
2023-03-18T09:05:36.496Z,94778.78
2023-03-18T09:08:03.946Z,94787.59
2023-03-18T09:10:30.835Z,94782.88
2023-03-18T09:12:58.117Z,94781.69
2023-03-18T09:15:24.898Z,94773.88
2023-03-18T09:18:09.968Z,94791.25
2023-03-18T09:20:37.783Z,94783.88
2023-03-18T09:23:04.716Z,94785.75
2023-03-18T09:25:31.597Z,94778.53
2023-03-18T09:27:58.509Z,94771.44
2023-03-18T09:30:26.391Z,94774.59
2023-03-18T09:32:54.047Z,94772.47
2023-03-18T09:35:20.819Z,94773.94
2023-03-18T09:37:47.641Z,94779.41
2023-03-18T09:40:30.721Z,94774.06
2023-03-18T09:43:23.071Z,94778.38
2023-03-18T09:46:12.540Z,94772.78
2023-03-18T09:49:00.213Z,94781.34
2023-03-18T09:51:39.175Z,94783.22
2023-03-18T09:54:12.595Z,94777.63
2023-03-18T09:56:40.058Z,94782.47
2023-03-18T09:59:21.773Z,94783.97
2023-03-18T10:01:54.599Z,94779.47
2023-03-18T10:04:44.275Z,94785.28
2023-03-18T10:07:22.247Z,94779.84
2023-03-18T10:09:56.209Z,94779.03
2023-03-18T10:12:35.906Z,94780.22
2023-03-18T10:15:24.189Z,94778.66
2023-03-18T10:17:56.515Z,94773.81
2023-03-18T10:20:38.116Z,94769.66
2023-03-18T10:23:42.251Z,94768.28
2023-03-18T10:26:36.798Z,94766.28
2023-03-18T10:29:42.559Z,94766.34
2023-03-18T10:32:15.146Z,94758.88
2023-03-18T10:34:57.051Z,94757.28
2023-03-18T10:37:57.282Z,94757.22
2023-03-18T10:40:25.062Z,94758.78
2023-03-18T10:42:53.631Z,94750.25
2023-03-18T10:45:27.206Z,94747.94
2023-03-18T10:48:11.164Z,94742.53
2023-03-18T10:50:43.787Z,94740.78
2023-03-18T10:53:28.614Z,94729.97
2023-03-18T10:56:04.444Z,94726.69
2023-03-18T10:58:31.060Z,94724.69
2023-03-18T11:00:57.997Z,94729.31
2023-03-18T11:03:29.446Z,94724.78
2023-03-18T11:06:04.217Z,94715.09
2023-03-18T11:08:40.950Z,94716.19
2023-03-18T11:11:29.150Z,94713.09
2023-03-18T11:13:57.469Z,94721.19
2023-03-18T11:16:50.752Z,94711.28
2023-03-18T11:19:21.053Z,94716.66
2023-03-18T11:21:49.021Z,94701.84
2023-03-18T11:24:36.564Z,94699.78
2023-03-18T11:27:04.213Z,94702.66
2023-03-18T11:29:35.051Z,94694.91
2023-03-18T11:32:02.097Z,94691.25
2023-03-18T11:34:32.113Z,94685.47
2023-03-18T11:37:10.053Z,94675.78
2023-03-18T11:39:41.403Z,94676.28
2023-03-18T11:42:26.392Z,94671.94
2023-03-18T11:45:02.719Z,94671.91
2023-03-18T11:47:32.600Z,94663.06
2023-03-18T11:50:01.508Z,94660.25
2023-03-18T11:52:47.100Z,94655.97
2023-03-18T11:55:23.504Z,94652.63
2023-03-18T11:58:05.858Z,94651.63
2023-03-18T12:00:42.177Z,94648.44
2023-03-18T12:03:21.062Z,94650.13
2023-03-18T12:06:13.098Z,94642.81
2023-03-18T12:09:07.252Z,94645.16
2023-03-18T12:11:46.982Z,94645.84
2023-03-18T12:14:26.015Z,94652.13
2023-03-18T12:17:28.026Z,94645.22
2023-03-18T12:20:12.071Z,94650.75
2023-03-18T12:23:04.454Z,94650.41
2023-03-18T12:25:37.174Z,94643.06
2023-03-18T12:28:48.498Z,94638.22
2023-03-18T12:31:50.361Z,94641.16
2023-03-18T12:34:23.023Z,94633.72
2023-03-18T12:37:08.010Z,94643.91
2023-03-18T12:40:12.829Z,94642.84
2023-03-18T12:43:23.155Z,94644.59
2023-03-18T12:45:58.618Z,94639.47
2023-03-18T12:48:44.503Z,94632.69
2023-03-18T12:51:19.229Z,94637.53
2023-03-18T12:53:50.224Z,94641.44
2023-03-18T12:56:23.713Z,94643.88
2023-03-18T12:58:55.080Z,94648.66
2023-03-18T13:01:41.242Z,94643.19
2023-03-18T13:04:14.152Z,94629.72
2023-03-18T13:06:42.197Z,94619.09
2023-03-18T13:09:32.508Z,94620.75
2023-03-18T13:12:10.012Z,94621.38
2023-03-18T13:14:49.162Z,94612.59
2023-03-18T13:17:31.286Z,94614.69
2023-03-18T13:20:04.872Z,94616.53
2023-03-18T13:22:57.953Z,94611.03
2023-03-18T13:25:37.012Z,94606.06
2023-03-18T13:28:09.855Z,94603.13
2023-03-18T13:30:48.619Z,94600.34
2023-03-18T13:33:30.737Z,94603.84
2023-03-18T13:36:04.340Z,94595.88
2023-03-18T13:38:52.639Z,94591.78
2023-03-18T13:41:51.950Z,94587.34
2023-03-18T13:44:31.517Z,94593.53
2023-03-18T13:47:03.950Z,94597.47
2023-03-18T13:49:33.067Z,94589.56
2023-03-18T13:52:04.060Z,94589.28
2023-03-18T13:54:37.181Z,94592.31
2023-03-18T13:57:32.850Z,94588.44
2023-03-18T14:00:22.510Z,94581.34
2023-03-18T14:03:02.542Z,94593.78
2023-03-18T14:05:32.708Z,94580.38
2023-03-18T14:08:05.263Z,94579.47
2023-03-18T14:10:31.904Z,94567.50
2023-03-18T14:13:28.250Z,94573.25
2023-03-18T14:15:57.975Z,94576.84
2023-03-18T14:18:28.138Z,94572.28
2023-03-18T14:21:00.119Z,94570.16
2023-03-18T14:23:44.329Z,94579.16
2023-03-18T14:26:22.181Z,94570.53
2023-03-18T14:29:07.249Z,94570.41
2023-03-18T14:31:40.151Z,94564.63
2023-03-18T14:34:19.379Z,94562.75
2023-03-18T14:37:14.673Z,94555.88
2023-03-18T14:39:46.425Z,94552.59
2023-03-18T14:42:23.855Z,94557.47
2023-03-18T14:44:54.713Z,94546.00
2023-03-18T14:47:52.433Z,94552.81
2023-03-18T14:50:41.100Z,94551.88
2023-03-18T14:53:17.713Z,94543.31
2023-03-18T14:55:45.113Z,94544.94
2023-03-18T14:58:18.943Z,94534.41
2023-03-18T15:00:48.491Z,94536.59
2023-03-18T15:03:19.938Z,94537.28
2023-03-18T15:05:46.852Z,94532.63
2023-03-18T15:08:19.165Z,94530.38
2023-03-18T15:10:49.841Z,94526.94
2023-03-18T15:13:19.980Z,94531.53
2023-03-18T15:15:47.078Z,94534.59
2023-03-18T15:18:20.016Z,94534.00
2023-03-18T15:20:56.063Z,94534.41
2023-03-18T15:23:29.580Z,94540.81
2023-03-18T15:25:57.203Z,94539.91
2023-03-18T15:28:25.048Z,94546.41
2023-03-18T15:30:54.604Z,94537.28
2023-03-18T15:33:24.615Z,94540.47
2023-03-18T15:35:56.548Z,94537.41
2023-03-18T15:38:28.711Z,94534.50
2023-03-18T15:41:09.549Z,94531.94
2023-03-18T15:43:46.541Z,94538.22
2023-03-18T15:46:30.657Z,94537.72
2023-03-18T15:49:01.973Z,94538.88
2023-03-18T15:51:28.639Z,94537.50
2023-03-18T15:53:58.199Z,94534.94
2023-03-18T15:56:24.806Z,94529.94
2023-03-18T15:59:16.099Z,94534.75
2023-03-18T16:01:42.724Z,94539.16
2023-03-18T16:04:13.864Z,94539.78
2023-03-18T16:06:40.668Z,94537.38
2023-03-18T16:09:25.301Z,94542.16
2023-03-18T16:11:55.570Z,94544.72
2023-03-18T16:14:26.031Z,94542.50
2023-03-18T16:16:53.172Z,94545.69
2023-03-18T16:19:28.086Z,94547.47
2023-03-18T16:21:58.717Z,94547.47
2023-03-18T16:24:26.031Z,94551.88
2023-03-18T16:26:54.728Z,94549.25
2023-03-18T16:29:29.914Z,94554.09
2023-03-18T16:31:57.082Z,94559.47
2023-03-18T16:34:24.331Z,94560.66
2023-03-18T16:36:52.043Z,94563.25
2023-03-18T16:39:22.230Z,94563.44
2023-03-18T16:41:49.643Z,94570.00
2023-03-18T16:44:19.326Z,94571.88
2023-03-18T16:46:49.763Z,94574.94
2023-03-18T16:49:30.860Z,94579.13
2023-03-18T16:51:57.955Z,94578.44
2023-03-18T16:54:33.248Z,94579.16
2023-03-18T16:57:02.836Z,94584.91
2023-03-18T16:59:32.414Z,94594.19
2023-03-18T17:01:59.205Z,94593.44
2023-03-18T17:04:31.916Z,94603.25
2023-03-18T17:07:00.523Z,94611.28
2023-03-18T17:09:28.082Z,94612.75
2023-03-18T17:12:03.070Z,94612.09
2023-03-18T17:14:36.070Z,94605.34
2023-03-18T17:17:07.714Z,94613.34
2023-03-18T17:19:35.442Z,94602.88
2023-03-18T17:22:02.960Z,94606.16
2023-03-18T17:24:29.526Z,94603.28
2023-03-18T17:26:56.387Z,94609.84
2023-03-18T17:29:25.672Z,94605.75
2023-03-18T17:31:53.859Z,94613.16
2023-03-18T17:34:21.006Z,94618.81
2023-03-18T17:36:47.863Z,94614.13
2023-03-18T17:39:14.777Z,94616.97
2023-03-18T17:41:42.570Z,94611.94
2023-03-18T17:44:29.769Z,94615.78
2023-03-18T17:46:57.162Z,94617.72
2023-03-18T17:49:26.488Z,94611.81
2023-03-18T17:51:55.163Z,94605.41
2023-03-18T17:54:25.254Z,94604.00
2023-03-18T17:56:52.814Z,94609.81
2023-03-18T17:59:20.447Z,94609.34
2023-03-18T18:01:49.730Z,94610.53
2023-03-18T18:04:21.226Z,94609.53
2023-03-18T18:06:49.211Z,94618.44
2023-03-18T18:09:16.584Z,94609.75
2023-03-18T18:11:48.971Z,94611.34
2023-03-18T18:14:22.497Z,94605.22
2023-03-18T18:16:50.111Z,94602.50
2023-03-18T18:19:17.626Z,94612.81
2023-03-18T18:21:46.069Z,94616.69
2023-03-18T18:24:25.816Z,94616.50
2023-03-18T18:26:52.629Z,94616.34
2023-03-18T18:29:24.119Z,94612.16
2023-03-18T18:31:52.401Z,94604.22
2023-03-18T18:34:21.537Z,94603.50
2023-03-18T18:36:49.631Z,94598.66
2023-03-18T18:39:16.839Z,94604.78
2023-03-18T18:41:44.249Z,94602.66
2023-03-18T18:44:11.862Z,94615.22
2023-03-18T18:46:39.213Z,94608.69
2023-03-18T18:49:06.094Z,94613.38
2023-03-18T18:51:33.076Z,94609.09
2023-03-18T18:54:00.026Z,94616.53
2023-03-18T18:56:34.513Z,94610.22
2023-03-18T18:59:05.140Z,94611.81
2023-03-18T19:01:31.962Z,94614.00
2023-03-18T19:03:58.539Z,94617.47
2023-03-18T19:06:30.469Z,94623.09
2023-03-18T19:08:59.539Z,94623.19
2023-03-18T19:11:28.036Z,94625.69
2023-03-18T19:13:55.453Z,94621.28
2023-03-18T19:16:28.232Z,94618.78
2023-03-18T19:18:55.205Z,94623.59
2023-03-18T19:21:22.240Z,94621.66
2023-03-18T19:23:49.022Z,94633.56
2023-03-18T19:26:16.538Z,94638.78
2023-03-18T19:28:57.413Z,94633.72
2023-03-18T19:31:26.871Z,94637.84
2023-03-18T19:33:54.009Z,94640.38
2023-03-18T19:36:40.478Z,94637.66
2023-03-18T19:39:14.264Z,94638.72
2023-03-18T19:41:41.036Z,94638.34
2023-03-18T19:44:18.460Z,94636.22
2023-03-18T19:46:46.480Z,94632.19
2023-03-18T19:49:35.410Z,94630.31
2023-03-18T19:52:06.861Z,94635.41
2023-03-18T19:54:36.919Z,94640.34
2023-03-18T19:57:14.754Z,94641.66
2023-03-18T19:59:43.086Z,94641.44
2023-03-18T20:02:24.428Z,94635.69
2023-03-18T20:04:56.761Z,94642.78
2023-03-18T20:07:26.463Z,94644.19
2023-03-18T20:09:53.939Z,94636.69
2023-03-18T20:12:33.198Z,94636.91
2023-03-18T20:14:59.869Z,94635.53
2023-03-18T20:17:28.199Z,94631.69
2023-03-18T20:19:55.371Z,94640.38
2023-03-18T20:22:31.663Z,94643.38
2023-03-18T20:24:58.951Z,94633.44
2023-03-18T20:27:25.683Z,94636.97
2023-03-18T20:29:52.232Z,94643.47
2023-03-18T20:32:18.996Z,94647.25
2023-03-18T20:34:47.082Z,94641.97
2023-03-18T20:37:29.601Z,94646.34
2023-03-18T20:39:56.574Z,94641.66
2023-03-18T20:42:23.331Z,94628.16
2023-03-18T20:44:50.036Z,94633.22
2023-03-18T20:47:16.887Z,94636.38
2023-03-18T20:49:47.550Z,94633.34
2023-03-18T20:52:25.906Z,94632.91
2023-03-18T20:54:53.022Z,94633.00
2023-03-18T20:57:19.872Z,94633.03
2023-03-18T20:59:46.981Z,94630.31
2023-03-18T21:02:29.109Z,94638.00
2023-03-18T21:04:59.645Z,94628.50
2023-03-18T21:07:27.550Z,94641.88
2023-03-18T21:09:54.322Z,94640.66
2023-03-18T21:12:22.205Z,94637.22
2023-03-18T21:14:49.722Z,94639.31
2023-03-18T21:17:21.822Z,94634.75
2023-03-18T21:19:49.268Z,94632.81
2023-03-18T21:22:26.040Z,94633.72
2023-03-18T21:24:53.102Z,94638.34
2023-03-18T21:27:22.393Z,94629.03
2023-03-18T21:29:51.264Z,94637.84
2023-03-18T21:32:32.066Z,94633.19
2023-03-18T21:34:58.813Z,94640.84
2023-03-18T21:37:27.356Z,94638.38
2023-03-18T21:39:54.521Z,94641.81
2023-03-18T21:42:26.654Z,94639.72
2023-03-18T21:44:54.376Z,94639.47
2023-03-18T21:47:23.219Z,94634.72
2023-03-18T21:49:50.565Z,94629.53
2023-03-18T21:52:28.439Z,94633.25
2023-03-18T21:54:55.436Z,94629.91
2023-03-18T21:57:23.385Z,94635.19
2023-03-18T21:59:53.832Z,94627.88
2023-03-18T22:02:26.539Z,94629.50
2023-03-18T22:04:54.536Z,94623.72
2023-03-18T22:07:23.109Z,94621.75
2023-03-18T22:09:50.071Z,94631.66
2023-03-18T22:12:31.269Z,94622.22
2023-03-18T22:14:59.586Z,94621.78
2023-03-18T22:17:34.130Z,94626.41
2023-03-18T22:20:01.670Z,94626.03
2023-03-18T22:22:34.627Z,94622.97
2023-03-18T22:25:01.182Z,94619.50
2023-03-18T22:27:30.519Z,94625.56
2023-03-18T22:29:59.721Z,94622.09
2023-03-18T22:32:32.691Z,94625.44
2023-03-18T22:34:59.220Z,94624.00
2023-03-18T22:37:26.476Z,94624.50
2023-03-18T22:39:53.886Z,94619.91
2023-03-18T22:42:23.440Z,94624.13
2023-03-18T22:44:51.102Z,94628.72
2023-03-18T22:47:22.869Z,94628.47
2023-03-18T22:49:51.089Z,94637.09
2023-03-18T22:52:25.359Z,94635.34
2023-03-18T22:54:59.304Z,94633.22
2023-03-18T22:57:27.440Z,94641.16
2023-03-18T22:59:56.097Z,94642.66
2023-03-18T23:02:25.557Z,94639.56
2023-03-18T23:04:53.096Z,94640.63
2023-03-18T23:07:29.171Z,94646.44
2023-03-18T23:09:57.832Z,94651.56
2023-03-18T23:12:26.576Z,94648.59
2023-03-18T23:14:53.899Z,94653.28
2023-03-18T23:17:23.053Z,94650.59
2023-03-18T23:19:51.033Z,94648.69
2023-03-18T23:22:23.058Z,94652.63
2023-03-18T23:24:49.700Z,94654.94
2023-03-18T23:27:16.689Z,94660.84
2023-03-18T23:29:43.518Z,94663.41
2023-03-18T23:32:10.811Z,94666.38
2023-03-18T23:34:37.737Z,94672.97
2023-03-18T23:37:04.426Z,94671.91
2023-03-18T23:39:33.079Z,94673.53
2023-03-18T23:42:00.763Z,94669.19
2023-03-18T23:44:28.227Z,94673.25
2023-03-18T23:46:54.979Z,94671.75
2023-03-18T23:49:21.961Z,94667.03
2023-03-18T23:51:48.554Z,94666.50
2023-03-18T23:54:15.328Z,94668.59
2023-03-18T23:56:42.110Z,94671.94
2023-03-18T23:59:08.818Z,94667.53
